createdAt,value
2022-12-22T00:00:31.305Z,9.747415
2022-12-22T00:01:31.320Z,9.747431
2022-12-22T00:02:31.460Z,9.747313
2022-12-22T00:03:31.384Z,9.747384
2022-12-22T00:04:31.276Z,9.747334
2022-12-22T00:05:31.276Z,9.747252
2022-12-22T00:06:31.261Z,9.747252
2022-12-22T00:07:31.279Z,9.747205
2022-12-22T00:08:31.244Z,9.747258
2022-12-22T00:09:31.251Z,9.747434
2022-12-22T00:10:31.232Z,9.747267
2022-12-22T00:11:31.224Z,9.747162
2022-12-22T00:12:31.250Z,9.747291
2022-12-22T00:13:31.204Z,9.747373
2022-12-22T00:14:31.203Z,9.747331
2022-12-22T00:15:31.180Z,9.747304
2022-12-22T00:16:32.270Z,9.747271
2022-12-22T00:17:31.441Z,9.747393
2022-12-22T00:18:31.175Z,9.747270
2022-12-22T00:19:31.173Z,9.747375
2022-12-22T00:20:31.184Z,9.747232
2022-12-22T00:21:31.169Z,9.747330
2022-12-22T00:22:31.167Z,9.747283
2022-12-22T00:23:31.136Z,9.747320
2022-12-22T00:24:31.121Z,9.747291
2022-12-22T00:25:31.114Z,9.747192
2022-12-22T00:26:31.101Z,9.747256
2022-12-22T00:27:31.110Z,9.747295
2022-12-22T00:28:31.113Z,9.747441
2022-12-22T00:29:31.090Z,9.747294
2022-12-22T00:30:31.087Z,9.747267
2022-12-22T00:31:31.065Z,9.747128
2022-12-22T00:32:31.063Z,9.747128
2022-12-22T00:33:31.080Z,9.747300
2022-12-22T00:34:32.709Z,9.747428
2022-12-22T00:35:32.044Z,9.747438
2022-12-22T00:36:31.046Z,9.747373
2022-12-22T00:37:31.020Z,9.747302
2022-12-22T00:38:31.047Z,9.747285
2022-12-22T00:39:31.008Z,9.747401
2022-12-22T00:40:31.009Z,9.747329
2022-12-22T00:41:30.992Z,9.747454
2022-12-22T00:42:30.989Z,9.747419
2022-12-22T00:43:31.013Z,9.747375
2022-12-22T00:44:30.980Z,9.747290
2022-12-22T00:45:31.007Z,9.747323
2022-12-22T00:46:31.017Z,9.747398
2022-12-22T00:47:30.950Z,9.747281
2022-12-22T00:48:30.975Z,9.747325
2022-12-22T00:49:30.935Z,9.747282
2022-12-22T00:50:30.933Z,9.747489
2022-12-22T00:51:30.937Z,9.747400
2022-12-22T00:52:30.920Z,9.747416
2022-12-22T00:53:30.929Z,9.747458
2022-12-22T00:54:30.895Z,9.747311
2022-12-22T00:55:30.886Z,9.747385
2022-12-22T00:56:30.892Z,9.747462
2022-12-22T00:57:30.887Z,9.747453
2022-12-22T00:58:30.920Z,9.747478
2022-12-22T00:59:30.856Z,9.747460
2022-12-22T01:00:31.859Z,9.747480
2022-12-22T01:01:30.931Z,9.747420
2022-12-22T01:02:31.026Z,9.747293
2022-12-22T01:03:30.942Z,9.747260
2022-12-22T01:04:30.825Z,9.747277
2022-12-22T01:05:30.814Z,9.747306
2022-12-22T01:06:30.803Z,9.747346
2022-12-22T01:07:30.815Z,9.747315
2022-12-22T01:08:30.827Z,9.747265
2022-12-22T01:09:30.789Z,9.747301
2022-12-22T01:10:30.769Z,9.747313
2022-12-22T01:11:30.768Z,9.747433
2022-12-22T01:12:30.755Z,9.747355
2022-12-22T01:13:30.790Z,9.747298
2022-12-22T01:14:30.748Z,9.747337
2022-12-22T01:15:30.825Z,9.747295
2022-12-22T01:16:30.785Z,9.747237
2022-12-22T01:17:30.731Z,9.747161
2022-12-22T01:18:30.747Z,9.747246
2022-12-22T01:19:30.720Z,9.747257
2022-12-22T01:20:30.710Z,9.747304
2022-12-22T01:21:30.723Z,9.747437
2022-12-22T01:22:31.717Z,9.747302
2022-12-22T01:23:30.707Z,9.747394
2022-12-22T01:24:30.699Z,9.747321
2022-12-22T01:25:30.669Z,9.747293
2022-12-22T01:26:30.659Z,9.747340
2022-12-22T01:27:30.650Z,9.747329
2022-12-22T01:28:30.643Z,9.747385
2022-12-22T01:29:30.667Z,9.747415
2022-12-22T01:30:30.699Z,9.747487
2022-12-22T01:31:30.618Z,9.747430
2022-12-22T01:32:30.615Z,9.747347
2022-12-22T01:33:30.622Z,9.747322
2022-12-22T01:34:30.644Z,9.747407
2022-12-22T01:35:30.587Z,9.747545
2022-12-22T01:36:30.606Z,9.747372
2022-12-22T01:37:30.590Z,9.747444
2022-12-22T01:38:30.579Z,9.747438
2022-12-22T01:39:30.589Z,9.747488
2022-12-22T01:40:30.563Z,9.747334
2022-12-22T01:41:30.548Z,9.747423
2022-12-22T01:42:30.550Z,9.747464
2022-12-22T01:43:30.550Z,9.747477
2022-12-22T01:44:30.550Z,9.747422
2022-12-22T01:45:30.516Z,9.747375
2022-12-22T01:46:30.578Z,9.747279
2022-12-22T01:47:30.510Z,9.747334
2022-12-22T01:48:30.490Z,9.747459
2022-12-22T01:49:30.513Z,9.747320
2022-12-22T01:50:30.485Z,9.747395
2022-12-22T01:51:30.485Z,9.747260
2022-12-22T01:52:30.478Z,9.747612
2022-12-22T01:53:30.464Z,9.747529
2022-12-22T01:54:30.485Z,9.747377
2022-12-22T01:55:30.443Z,9.747382
2022-12-22T01:56:30.436Z,9.747412
2022-12-22T01:57:30.440Z,9.747265
2022-12-22T01:58:30.418Z,9.747200
2022-12-22T01:59:30.456Z,9.747277
2022-12-22T02:00:30.417Z,9.747113
2022-12-22T02:01:30.459Z,9.747240
2022-12-22T02:02:30.480Z,9.747474
2022-12-22T02:03:30.408Z,9.747294
2022-12-22T02:04:30.403Z,9.747462
2022-12-22T02:05:30.379Z,9.747437
2022-12-22T02:06:30.359Z,9.747581
2022-12-22T02:07:30.352Z,9.747544
2022-12-22T02:08:30.341Z,9.747542
2022-12-22T02:09:30.364Z,9.747457
2022-12-22T02:10:30.331Z,9.747624
2022-12-22T02:11:30.327Z,9.747097
2022-12-22T02:12:30.325Z,9.747072
2022-12-22T02:13:30.301Z,9.747076
2022-12-22T02:14:30.722Z,9.747140
2022-12-22T02:15:30.316Z,9.747245
2022-12-22T02:16:30.375Z,9.747270
2022-12-22T02:17:30.267Z,9.747404
2022-12-22T02:18:30.276Z,9.747190
2022-12-22T02:19:30.264Z,9.747108
2022-12-22T02:20:30.280Z,9.747143
2022-12-22T02:21:30.240Z,9.746983
2022-12-22T02:22:30.234Z,9.746822
2022-12-22T02:23:30.287Z,9.746749
2022-12-22T02:24:30.229Z,9.747079
2022-12-22T02:25:30.239Z,9.747123
2022-12-22T02:26:30.195Z,9.747217
2022-12-22T02:27:30.208Z,9.747046
2022-12-22T02:28:30.188Z,9.747260
2022-12-22T02:29:30.198Z,9.746927
2022-12-22T02:30:30.200Z,9.747148
2022-12-22T02:31:30.181Z,9.747771
2022-12-22T02:32:30.179Z,9.747682
2022-12-22T02:33:30.152Z,9.747390
2022-12-22T02:34:30.147Z,9.747477
2022-12-22T02:35:30.162Z,9.747406
2022-12-22T02:36:30.140Z,9.747485
2022-12-22T02:37:30.115Z,9.747408
2022-12-22T02:38:30.110Z,9.747042
2022-12-22T02:39:30.112Z,9.747082
2022-12-22T02:40:32.315Z,9.747036
2022-12-22T02:41:31.095Z,9.747054
2022-12-22T02:42:30.090Z,9.747116
2022-12-22T02:43:30.083Z,9.747143
2022-12-22T02:44:30.078Z,9.747110
2022-12-22T02:45:30.100Z,9.747000
2022-12-22T02:46:30.087Z,9.746986
2022-12-22T02:47:30.058Z,9.747173
2022-12-22T02:48:30.050Z,9.747385
2022-12-22T02:49:30.034Z,9.747169
2022-12-22T02:50:30.041Z,9.746810
2022-12-22T02:51:30.037Z,9.746862
2022-12-22T02:52:30.020Z,9.746947
2022-12-22T02:53:30.005Z,9.747019
2022-12-22T02:54:30.010Z,9.747044
2022-12-22T02:55:30.026Z,9.747045
2022-12-22T02:56:29.975Z,9.746789
2022-12-22T02:57:29.974Z,9.746753
2022-12-22T02:58:29.965Z,9.746710
2022-12-22T02:59:29.971Z,9.746869
2022-12-22T03:00:29.985Z,9.747211
2022-12-22T03:01:30.097Z,9.747074
2022-12-22T03:02:30.213Z,9.747128
2022-12-22T03:03:30.071Z,9.746698
2022-12-22T03:04:29.915Z,9.746806
2022-12-22T03:05:29.909Z,9.746999
2022-12-22T03:06:29.927Z,9.747126
2022-12-22T03:07:29.887Z,9.747296
2022-12-22T03:08:29.890Z,9.747299
2022-12-22T03:09:29.871Z,9.747170
2022-12-22T03:10:29.875Z,9.747160
2022-12-22T03:11:29.888Z,9.747261
2022-12-22T03:12:29.856Z,9.747319
2022-12-22T03:13:29.852Z,9.747261
2022-12-22T03:14:29.846Z,9.747257
2022-12-22T03:15:29.838Z,9.747246
2022-12-22T03:16:29.878Z,9.747269
2022-12-22T03:17:29.829Z,9.747334
2022-12-22T03:18:29.816Z,9.747447
2022-12-22T03:19:29.795Z,9.747343
2022-12-22T03:20:29.828Z,9.747345
2022-12-22T03:21:29.814Z,9.747332
2022-12-22T03:22:29.775Z,9.747362
2022-12-22T03:23:29.775Z,9.747359
2022-12-22T03:24:29.776Z,9.747316
2022-12-22T03:25:29.754Z,9.747366
2022-12-22T03:26:29.782Z,9.747516
2022-12-22T03:27:29.751Z,9.747337
2022-12-22T03:28:29.759Z,9.747352
2022-12-22T03:29:29.743Z,9.747242
2022-12-22T03:30:29.733Z,9.747226
2022-12-22T03:31:29.812Z,9.747313
2022-12-22T03:32:29.707Z,9.747279
2022-12-22T03:33:29.698Z,9.747309
2022-12-22T03:34:29.698Z,9.747289
2022-12-22T03:35:29.697Z,9.747274
2022-12-22T03:36:29.706Z,9.747297
2022-12-22T03:37:29.675Z,9.747193
2022-12-22T03:38:29.664Z,9.747203
2022-12-22T03:39:29.676Z,9.747222
2022-12-22T03:40:29.648Z,9.747208
2022-12-22T03:41:29.667Z,9.747226
2022-12-22T03:42:29.632Z,9.747278
2022-12-22T03:43:29.623Z,9.747219
2022-12-22T03:44:29.622Z,9.747274
2022-12-22T03:45:29.627Z,9.747311
2022-12-22T03:46:29.675Z,9.747251
2022-12-22T03:47:29.597Z,9.747220
2022-12-22T03:48:29.589Z,9.747133
2022-12-22T03:49:29.613Z,9.747199
2022-12-22T03:50:29.577Z,9.747086
2022-12-22T03:51:29.600Z,9.747314
2022-12-22T03:52:29.579Z,9.747290
2022-12-22T03:53:29.553Z,9.747298
2022-12-22T03:54:29.573Z,9.747229
2022-12-22T03:55:29.524Z,9.747234
2022-12-22T03:57:01.474Z,9.747292
2022-12-22T03:57:29.526Z,9.747293
2022-12-22T03:58:29.517Z,9.747316
2022-12-22T03:59:29.509Z,9.747272
2022-12-22T04:00:29.501Z,9.747258
2022-12-22T04:01:29.680Z,9.747278
2022-12-22T04:02:29.580Z,9.747297
2022-12-22T04:03:29.658Z,9.747300
2022-12-22T04:04:29.563Z,9.747291
2022-12-22T04:05:29.473Z,9.747384
2022-12-22T04:06:29.489Z,9.747308
2022-12-22T04:07:29.449Z,9.747224
2022-12-22T04:08:29.452Z,9.747229
2022-12-22T04:09:29.461Z,9.747223
2022-12-22T04:10:29.426Z,9.747371
2022-12-22T04:11:29.457Z,9.747646
2022-12-22T04:12:29.425Z,9.747543
2022-12-22T04:13:29.405Z,9.747491
2022-12-22T04:14:33.734Z,9.747472
2022-12-22T04:15:31.403Z,9.747570
2022-12-22T04:16:29.448Z,9.747477
2022-12-22T04:17:29.393Z,9.747456
2022-12-22T04:18:29.364Z,9.747373
2022-12-22T04:19:29.368Z,9.747383
2022-12-22T04:20:29.402Z,9.747420
2022-12-22T04:21:29.396Z,9.747385
2022-12-22T04:22:29.360Z,9.747424
2022-12-22T04:23:29.327Z,9.747454
2022-12-22T04:24:29.325Z,9.747477
2022-12-22T04:25:29.321Z,9.747456
2022-12-22T04:26:29.305Z,9.747456
2022-12-22T04:27:29.360Z,9.747407
2022-12-22T04:28:29.396Z,9.747352
2022-12-22T04:29:29.283Z,9.747351
2022-12-22T04:30:29.284Z,9.747359
2022-12-22T04:31:29.300Z,9.747410
2022-12-22T04:32:29.305Z,9.747413
2022-12-22T04:33:29.255Z,9.747437
2022-12-22T04:34:29.249Z,9.747361
2022-12-22T04:35:29.231Z,9.747363
2022-12-22T04:36:29.222Z,9.747378
2022-12-22T04:37:29.267Z,9.747332
2022-12-22T04:38:29.215Z,9.747372
2022-12-22T04:39:29.231Z,9.747328
2022-12-22T04:40:29.210Z,9.747410
2022-12-22T04:41:29.215Z,9.747409
2022-12-22T04:42:29.201Z,9.747465
2022-12-22T04:43:29.183Z,9.747387
2022-12-22T04:44:29.163Z,9.747282
2022-12-22T04:45:29.192Z,9.747316
2022-12-22T04:46:29.284Z,9.747350
2022-12-22T04:47:29.183Z,9.747388
2022-12-22T04:48:29.129Z,9.747348
2022-12-22T04:49:29.138Z,9.747417
2022-12-22T04:50:29.121Z,9.747375
2022-12-22T04:51:29.143Z,9.747406
2022-12-22T04:52:29.134Z,9.747434
2022-12-22T04:53:29.097Z,9.747348
2022-12-22T04:54:29.079Z,9.747419
2022-12-22T04:55:29.080Z,9.747409
2022-12-22T04:56:29.077Z,9.747311
2022-12-22T04:57:29.121Z,9.747462
2022-12-22T04:58:29.056Z,9.747468
2022-12-22T04:59:29.084Z,9.747452
2022-12-22T05:00:29.045Z,9.747370
2022-12-22T05:01:29.114Z,9.747375
2022-12-22T05:02:29.149Z,9.747440
2022-12-22T05:03:29.084Z,9.747480
2022-12-22T05:04:29.004Z,9.747521
2022-12-22T05:05:29.007Z,9.747397
2022-12-22T05:06:28.993Z,9.747340
2022-12-22T05:07:29.015Z,9.747427
2022-12-22T05:08:28.984Z,9.747367
2022-12-22T05:09:28.995Z,9.747441
2022-12-22T05:10:28.968Z,9.747488
2022-12-22T05:11:28.965Z,9.747322
2022-12-22T05:12:28.982Z,9.747512
2022-12-22T05:13:28.944Z,9.747292
2022-12-22T05:14:28.946Z,9.747316
2022-12-22T05:15:28.929Z,9.747211
2022-12-22T05:16:28.992Z,9.747358
2022-12-22T05:17:28.950Z,9.747353
2022-12-22T05:18:29.006Z,9.747357
2022-12-22T05:19:30.922Z,9.747501
2022-12-22T05:20:29.896Z,9.747179
2022-12-22T05:21:28.926Z,9.747332
2022-12-22T05:22:28.919Z,9.747208
2022-12-22T05:23:28.870Z,9.747390
2022-12-22T05:24:28.867Z,9.747677
2022-12-22T05:25:34.669Z,9.747463
2022-12-22T05:26:30.857Z,9.747788
2022-12-22T05:27:28.864Z,9.748368
2022-12-22T05:28:28.838Z,9.748071
2022-12-22T05:29:28.816Z,9.747876
2022-12-22T05:30:28.869Z,9.747634
2022-12-22T05:31:28.925Z,9.747798
2022-12-22T05:32:28.828Z,9.747718
2022-12-22T05:33:28.802Z,9.747861
2022-12-22T05:34:28.801Z,9.747727
2022-12-22T05:35:28.785Z,9.747372
2022-12-22T05:36:28.771Z,9.747023
2022-12-22T05:37:28.792Z,9.747583
2022-12-22T05:38:28.761Z,9.747375
2022-12-22T05:39:28.748Z,9.747408
2022-12-22T05:40:28.753Z,9.747387
2022-12-22T05:41:28.731Z,9.747420
2022-12-22T05:42:28.758Z,9.747354
2022-12-22T05:43:28.715Z,9.747293
2022-12-22T05:44:28.714Z,9.747352
2022-12-22T05:45:28.702Z,9.747372
2022-12-22T05:46:28.759Z,9.747437
2022-12-22T05:47:28.684Z,9.747437
2022-12-22T05:48:35.303Z,9.747424
2022-12-22T05:49:30.708Z,9.747278
2022-12-22T05:50:28.673Z,9.747395
2022-12-22T05:51:28.655Z,9.747228
2022-12-22T05:52:28.657Z,9.747312
2022-12-22T05:53:28.668Z,9.747414
2022-12-22T05:54:28.636Z,9.747280
2022-12-22T05:55:28.640Z,9.747388
2022-12-22T05:56:28.615Z,9.747303
2022-12-22T05:57:28.613Z,9.747475
2022-12-22T05:58:28.679Z,9.747418
2022-12-22T05:59:28.601Z,9.747348
2022-12-22T06:00:28.586Z,9.747323
2022-12-22T06:01:28.655Z,9.747334
2022-12-22T06:02:28.721Z,9.747349
2022-12-22T06:03:28.847Z,9.747354
2022-12-22T06:04:28.675Z,9.747289
2022-12-22T06:05:28.590Z,9.747316
2022-12-22T06:06:28.563Z,9.747364
2022-12-22T06:07:28.536Z,9.747357
2022-12-22T06:08:28.571Z,9.747311
2022-12-22T06:09:28.524Z,9.747303
2022-12-22T06:10:28.519Z,9.747401
2022-12-22T06:11:28.517Z,9.747313
2022-12-22T06:12:28.507Z,9.747257
2022-12-22T06:13:28.532Z,9.747335
2022-12-22T06:14:28.484Z,9.747425
2022-12-22T06:15:28.481Z,9.747507
2022-12-22T06:16:28.517Z,9.747602
2022-12-22T06:17:28.463Z,9.747427
2022-12-22T06:18:28.487Z,9.747424
2022-12-22T06:19:28.443Z,9.747380
2022-12-22T06:20:28.456Z,9.747314
2022-12-22T06:21:28.436Z,9.747301
2022-12-22T06:22:28.431Z,9.747321
2022-12-22T06:23:28.443Z,9.747432
2022-12-22T06:24:28.417Z,9.747421
2022-12-22T06:25:28.400Z,9.747452
2022-12-22T06:26:28.406Z,9.747408
2022-12-22T06:27:28.394Z,9.747486
2022-12-22T06:28:28.424Z,9.747603
2022-12-22T06:29:28.382Z,9.747504
2022-12-22T06:30:33.220Z,9.747461
2022-12-22T06:31:30.450Z,9.747520
2022-12-22T06:32:28.355Z,9.747677
2022-12-22T06:33:28.392Z,9.747455
2022-12-22T06:34:28.350Z,9.747513
2022-12-22T06:35:28.323Z,9.747457
2022-12-22T06:36:28.313Z,9.747396
2022-12-22T06:37:28.319Z,9.747425
2022-12-22T06:38:28.549Z,9.747435
2022-12-22T06:39:28.295Z,9.747415
2022-12-22T06:40:28.294Z,9.747435
2022-12-22T06:41:28.277Z,9.747417
2022-12-22T06:42:28.294Z,9.747457
2022-12-22T06:43:28.313Z,9.747494
2022-12-22T06:44:28.269Z,9.747408
2022-12-22T06:45:28.262Z,9.747420
2022-12-22T06:46:28.339Z,9.747404
2022-12-22T06:47:28.231Z,9.747545
2022-12-22T06:48:28.259Z,9.747485
2022-12-22T06:49:28.231Z,9.747472
2022-12-22T06:50:28.245Z,9.747340
2022-12-22T06:51:28.232Z,9.747422
2022-12-22T06:52:28.218Z,9.747431
2022-12-22T06:53:28.235Z,9.747403
2022-12-22T06:54:28.203Z,9.747322
2022-12-22T06:55:28.193Z,9.747453
2022-12-22T06:56:28.204Z,9.747508
2022-12-22T06:57:28.183Z,9.747336
2022-12-22T06:58:28.208Z,9.747414
2022-12-22T06:59:28.152Z,9.747424
2022-12-22T07:00:28.162Z,9.747392
2022-12-22T07:01:28.256Z,9.747441
2022-12-22T07:02:28.380Z,9.747408
2022-12-22T07:03:28.305Z,9.747371
2022-12-22T07:04:28.115Z,9.747384
2022-12-22T07:05:28.112Z,9.747409
2022-12-22T07:06:28.107Z,9.747408
2022-12-22T07:07:28.113Z,9.747429
2022-12-22T07:08:28.103Z,9.747411
2022-12-22T07:09:28.074Z,9.747454
2022-12-22T07:10:28.174Z,9.747442
2022-12-22T07:11:28.069Z,9.747450
2022-12-22T07:12:28.058Z,9.747373
2022-12-22T07:13:28.046Z,9.747493
2022-12-22T07:14:28.142Z,9.747462
2022-12-22T07:15:28.023Z,9.747407
2022-12-22T07:16:28.112Z,9.747444
2022-12-22T07:17:28.014Z,9.747387
2022-12-22T07:18:28.020Z,9.747417
2022-12-22T07:19:28.127Z,9.747375
2022-12-22T07:20:28.062Z,9.747449
2022-12-22T07:21:27.979Z,9.747391
2022-12-22T07:22:30.636Z,9.747474
2022-12-22T07:23:28.966Z,9.747455
2022-12-22T07:24:27.987Z,9.747449
2022-12-22T07:25:27.975Z,9.747534
2022-12-22T07:26:27.952Z,9.747411
2022-12-22T07:27:27.932Z,9.747461
2022-12-22T07:28:27.925Z,9.747491
2022-12-22T07:29:27.959Z,9.747381
2022-12-22T07:30:27.957Z,9.747495
2022-12-22T07:31:27.953Z,9.747456
2022-12-22T07:32:27.908Z,9.747325
2022-12-22T07:33:27.907Z,9.747443
2022-12-22T07:34:27.938Z,9.747431
2022-12-22T07:35:27.893Z,9.747452
2022-12-22T07:36:27.861Z,9.747359
2022-12-22T07:37:28.877Z,9.747480
2022-12-22T07:38:27.864Z,9.747436
2022-12-22T07:39:27.878Z,9.747471
2022-12-22T07:40:27.844Z,9.747438
2022-12-22T07:41:27.846Z,9.747383
2022-12-22T07:42:27.817Z,9.747530
2022-12-22T07:43:27.837Z,9.747421
2022-12-22T07:44:27.835Z,9.747433
2022-12-22T07:45:27.815Z,9.747540
2022-12-22T07:46:27.815Z,9.747351
2022-12-22T07:47:34.817Z,9.747349
2022-12-22T07:48:29.764Z,9.747283
2022-12-22T07:49:28.803Z,9.747318
2022-12-22T07:50:27.804Z,9.747245
2022-12-22T07:51:29.903Z,9.747255
2022-12-22T07:52:28.895Z,9.747245
2022-12-22T07:53:29.387Z,9.747188
2022-12-22T07:54:29.964Z,9.747252
2022-12-22T07:55:28.433Z,9.747379
2022-12-22T07:56:29.383Z,9.747414
2022-12-22T07:57:29.934Z,9.747346
2022-12-22T07:58:28.597Z,9.747420
2022-12-22T07:59:31.388Z,9.747424
2022-12-22T08:00:31.399Z,9.747337
2022-12-22T08:01:29.473Z,9.747282
2022-12-22T08:02:35.249Z,9.747176
2022-12-22T08:03:30.589Z,9.747258
2022-12-22T08:04:29.634Z,9.747251
2022-12-22T08:05:31.448Z,9.747325
2022-12-22T08:06:30.381Z,9.747354
2022-12-22T08:07:29.451Z,9.747355
2022-12-22T08:08:29.460Z,9.747408
2022-12-22T08:09:30.919Z,9.747290
2022-12-22T08:10:30.398Z,9.747332
2022-12-22T08:11:31.380Z,9.747335
2022-12-22T08:12:32.038Z,9.747318
2022-12-22T08:13:30.879Z,9.747293
2022-12-22T08:14:28.944Z,9.747425
2022-12-22T08:15:29.385Z,9.747332
2022-12-22T08:16:28.670Z,9.747303
2022-12-22T08:17:32.408Z,9.747216
2022-12-22T08:18:29.882Z,9.747304
2022-12-22T08:19:31.381Z,9.747329
2022-12-22T08:20:30.881Z,9.747307
2022-12-22T08:21:28.623Z,9.747417
2022-12-22T08:22:29.964Z,9.747378
2022-12-22T08:23:29.888Z,9.747318
2022-12-22T08:24:32.894Z,9.747311
2022-12-22T08:25:28.940Z,9.747272
2022-12-22T08:26:28.966Z,9.747403
2022-12-22T08:27:30.456Z,9.747445
2022-12-22T08:28:29.383Z,9.747235
2022-12-22T08:29:28.396Z,9.747255
2022-12-22T08:30:30.906Z,9.747329
2022-12-22T08:31:28.290Z,9.747609
2022-12-22T08:32:30.900Z,9.747367
2022-12-22T08:33:28.945Z,9.747353
2022-12-22T08:34:28.898Z,9.747481
2022-12-22T08:35:29.934Z,9.747437
2022-12-22T08:36:28.093Z,9.747284
2022-12-22T08:37:28.463Z,9.747375
2022-12-22T08:38:28.892Z,9.747319
2022-12-22T08:39:29.887Z,9.747396
2022-12-22T08:40:28.900Z,9.747484
2022-12-22T08:41:28.200Z,9.747422
2022-12-22T08:42:28.909Z,9.747440
2022-12-22T08:43:28.887Z,9.747480
2022-12-22T08:44:29.435Z,9.747313
2022-12-22T08:45:29.955Z,9.747285
2022-12-22T08:46:29.199Z,9.747453
2022-12-22T08:47:31.494Z,9.747369
2022-12-22T08:48:29.905Z,9.747365
2022-12-22T08:49:29.941Z,9.747290
2022-12-22T08:50:28.889Z,9.747284
2022-12-22T08:51:29.904Z,9.747391
2022-12-22T08:52:27.956Z,9.747396
2022-12-22T08:54:03.212Z,9.747449
2022-12-22T08:54:30.120Z,9.747338
2022-12-22T08:55:27.417Z,9.747518
2022-12-22T08:56:27.938Z,9.747463
2022-12-22T08:57:28.888Z,9.747442
2022-12-22T08:58:29.392Z,9.747317
2022-12-22T08:59:28.473Z,9.747345
2022-12-22T09:00:27.402Z,9.747437
2022-12-22T09:01:29.527Z,9.747407
2022-12-22T09:02:29.069Z,9.747398
2022-12-22T09:03:29.480Z,9.747470
2022-12-22T09:04:27.949Z,9.747319
2022-12-22T09:05:28.405Z,9.747328
2022-12-22T09:06:28.010Z,9.747185
2022-12-22T09:07:28.278Z,9.747093
2022-12-22T09:08:27.922Z,9.747139
2022-12-22T09:09:28.901Z,9.747341
2022-12-22T09:10:28.660Z,9.747426
2022-12-22T09:11:29.419Z,9.747443
2022-12-22T09:12:28.393Z,9.747573
2022-12-22T09:13:30.924Z,9.747442
2022-12-22T09:14:28.474Z,9.747428
2022-12-22T09:15:27.892Z,9.747363
2022-12-22T09:16:29.949Z,9.747343
2022-12-22T09:17:30.960Z,9.747288
2022-12-22T09:18:28.399Z,9.747298
2022-12-22T09:19:30.397Z,9.747301
2022-12-22T09:20:28.968Z,9.747205
2022-12-22T09:21:29.966Z,9.747196
2022-12-22T09:22:29.904Z,9.747285
2022-12-22T09:23:28.910Z,9.747321
2022-12-22T09:24:29.399Z,9.747285
2022-12-22T09:25:29.932Z,9.747294
2022-12-22T09:26:30.450Z,9.747269
2022-12-22T09:27:31.397Z,9.747297
2022-12-22T09:28:27.960Z,9.747326
2022-12-22T09:29:28.425Z,9.747377
2022-12-22T09:30:29.397Z,9.747549
2022-12-22T09:31:29.967Z,9.747334
2022-12-22T09:32:28.955Z,9.747021
2022-12-22T09:33:27.928Z,9.747091
2022-12-22T09:34:29.401Z,9.747270
2022-12-22T09:35:28.407Z,9.747306
2022-12-22T09:36:27.898Z,9.747340
2022-12-22T09:37:28.401Z,9.747226
2022-12-22T09:38:30.452Z,9.747031
2022-12-22T09:39:29.721Z,9.747081
2022-12-22T09:40:29.415Z,9.747172
2022-12-22T09:41:29.005Z,9.747218
2022-12-22T09:42:28.402Z,9.747143
2022-12-22T09:43:27.621Z,9.747368
2022-12-22T09:44:28.418Z,9.747327
2022-12-22T09:45:28.975Z,9.747342
2022-12-22T09:46:29.992Z,9.747455
2022-12-22T09:47:27.404Z,9.747421
2022-12-22T09:48:28.114Z,9.747527
2022-12-22T09:49:26.956Z,9.747470
2022-12-22T09:50:28.141Z,9.747408
2022-12-22T09:51:27.903Z,9.747266
2022-12-22T09:52:27.952Z,9.747269
2022-12-22T09:53:28.405Z,9.747458
2022-12-22T09:54:27.599Z,9.747307
2022-12-22T09:55:28.424Z,9.747465
2022-12-22T09:56:28.914Z,9.747540
2022-12-22T09:58:01.005Z,9.747428
2022-12-22T09:58:26.945Z,9.747354
2022-12-22T09:59:26.795Z,9.747355
2022-12-22T10:00:26.786Z,9.747386
2022-12-22T10:01:26.876Z,9.747446
2022-12-22T10:02:26.863Z,9.747368
2022-12-22T10:03:26.821Z,9.747393
2022-12-22T10:04:27.783Z,9.747388
2022-12-22T10:05:26.768Z,9.747364
2022-12-22T10:06:26.786Z,9.747342
2022-12-22T10:07:26.751Z,9.747381
2022-12-22T10:08:26.728Z,9.747489
2022-12-22T10:09:49.132Z,9.747499
2022-12-22T10:10:28.753Z,9.747662
2022-12-22T10:11:26.764Z,9.747537
2022-12-22T10:12:26.730Z,9.747505
2022-12-22T10:13:26.720Z,9.747567
2022-12-22T10:14:26.731Z,9.747583
2022-12-22T10:15:26.678Z,9.747403
2022-12-22T10:16:26.752Z,9.747400
2022-12-22T10:17:26.673Z,9.747393
2022-12-22T10:18:26.674Z,9.747396
2022-12-22T10:19:26.668Z,9.747351
2022-12-22T10:20:26.691Z,9.747215
2022-12-22T10:21:26.679Z,9.747290
2022-12-22T10:22:26.631Z,9.747791
2022-12-22T10:23:26.637Z,9.747343
2022-12-22T10:24:26.635Z,9.747410
2022-12-22T10:25:26.640Z,9.747441
2022-12-22T10:26:29.708Z,9.747190
2022-12-22T10:27:29.305Z,9.747396
2022-12-22T10:28:27.592Z,9.747561
2022-12-22T10:29:26.610Z,9.747446
2022-12-22T10:30:26.582Z,9.747483
2022-12-22T10:31:26.628Z,9.747410
2022-12-22T10:32:26.662Z,9.747255
2022-12-22T10:33:26.559Z,9.747620
2022-12-22T10:34:26.549Z,9.747487
2022-12-22T10:35:26.554Z,9.747439
2022-12-22T10:36:26.527Z,9.747410
2022-12-22T10:37:26.561Z,9.747390
2022-12-22T10:38:26.562Z,9.747408
2022-12-22T10:39:26.512Z,9.747484
2022-12-22T10:40:26.504Z,9.747423
2022-12-22T10:41:26.509Z,9.747431
2022-12-22T10:42:26.512Z,9.747221
2022-12-22T10:43:26.478Z,9.747442
2022-12-22T10:44:26.454Z,9.747483
2022-12-22T10:45:26.470Z,9.747164
2022-12-22T10:46:26.476Z,9.747156
2022-12-22T10:47:26.479Z,9.747288
2022-12-22T10:48:26.442Z,9.747285
2022-12-22T10:49:26.439Z,9.747376
2022-12-22T10:50:26.421Z,9.747366
2022-12-22T10:51:26.438Z,9.747647
2022-12-22T10:52:30.631Z,9.747358
2022-12-22T10:53:28.391Z,9.747402
2022-12-22T10:54:26.396Z,9.747345
2022-12-22T10:55:26.388Z,9.747394
2022-12-22T10:56:26.381Z,9.747353
2022-12-22T10:57:26.452Z,9.747306
2022-12-22T10:58:26.367Z,9.747334
2022-12-22T10:59:26.372Z,9.747194
2022-12-22T11:00:26.385Z,9.747316
2022-12-22T11:01:26.453Z,9.747278
2022-12-22T11:02:26.568Z,9.747339
2022-12-22T11:03:26.469Z,9.747387
2022-12-22T11:04:26.331Z,9.747375
2022-12-22T11:05:26.328Z,9.747382
2022-12-22T11:06:26.323Z,9.747364
2022-12-22T11:07:26.332Z,9.747430
2022-12-22T11:08:26.316Z,9.747225
2022-12-22T11:09:35.123Z,9.747201
2022-12-22T11:10:28.296Z,9.747267
2022-12-22T11:11:26.266Z,9.747416
2022-12-22T11:12:26.320Z,9.747200
2022-12-22T11:13:26.257Z,9.747301
2022-12-22T11:14:26.248Z,9.747502
2022-12-22T11:15:26.268Z,9.747399
2022-12-22T11:16:26.307Z,9.747344
2022-12-22T11:17:26.253Z,9.747478
2022-12-22T11:18:26.222Z,9.747322
2022-12-22T11:19:26.216Z,9.747293
2022-12-22T11:20:26.196Z,9.747422
2022-12-22T11:21:26.190Z,9.747291
2022-12-22T11:22:26.218Z,9.747382
2022-12-22T11:23:26.190Z,9.747371
2022-12-22T11:24:26.188Z,9.747283
2022-12-22T11:25:26.162Z,9.747287
2022-12-22T11:26:26.165Z,9.747180
2022-12-22T11:27:26.173Z,9.747144
2022-12-22T11:28:26.165Z,9.747595
2022-12-22T11:29:26.165Z,9.747364
2022-12-22T11:30:26.145Z,9.747355
2022-12-22T11:31:26.260Z,9.747281
2022-12-22T11:32:26.159Z,9.747151
2022-12-22T11:33:26.139Z,9.747360
2022-12-22T11:34:27.151Z,9.747424
2022-12-22T11:35:26.092Z,9.747712
2022-12-22T11:36:26.092Z,9.747626
2022-12-22T11:37:26.132Z,9.747377
2022-12-22T11:38:26.069Z,9.747276
2022-12-22T11:39:26.075Z,9.747375
2022-12-22T11:40:26.050Z,9.747627
2022-12-22T11:41:26.069Z,9.747878
2022-12-22T11:42:26.091Z,9.747953
2022-12-22T11:43:26.043Z,9.747740
2022-12-22T11:44:26.049Z,9.747560